sensor_id;sensor_type;location;lat;lon;timestamp;temperature;humidity
75170;SHT31;63749;49.186;9.222;2023-03-26T00:01:22;8.11;87.07
75170;SHT31;63749;49.186;9.222;2023-03-26T00:03:49;8.10;87.21
75170;SHT31;63749;49.186;9.222;2023-03-26T00:06:25;8.04;88.00
75170;SHT31;63749;49.186;9.222;2023-03-26T00:08:52;8.08;87.94
75170;SHT31;63749;49.186;9.222;2023-03-26T00:11:19;8.04;88.63
75170;SHT31;63749;49.186;9.222;2023-03-26T00:13:46;7.98;89.31
75170;SHT31;63749;49.186;9.222;2023-03-26T00:16:14;7.97;89.33
75170;SHT31;63749;49.186;9.222;2023-03-26T00:18:40;8.01;88.80
75170;SHT31;63749;49.186;9.222;2023-03-26T00:21:07;7.97;88.86
75170;SHT31;63749;49.186;9.222;2023-03-26T00:23:34;7.94;88.82
75170;SHT31;63749;49.186;9.222;2023-03-26T00:26:04;7.90;88.15
75170;SHT31;63749;49.186;9.222;2023-03-26T00:28:35;7.93;87.53
75170;SHT31;63749;49.186;9.222;2023-03-26T00:31:03;7.84;87.69
75170;SHT31;63749;49.186;9.222;2023-03-26T00:33:29;7.77;88.50
75170;SHT31;63749;49.186;9.222;2023-03-26T00:35:58;7.79;88.86
75170;SHT31;63749;49.186;9.222;2023-03-26T00:38:26;7.77;88.86
75170;SHT31;63749;49.186;9.222;2023-03-26T00:40:52;7.89;88.94
75170;SHT31;63749;49.186;9.222;2023-03-26T00:43:20;7.94;88.41
75170;SHT31;63749;49.186;9.222;2023-03-26T00:45:46;7.90;88.62
75170;SHT31;63749;49.186;9.222;2023-03-26T00:48:13;7.76;88.65
75170;SHT31;63749;49.186;9.222;2023-03-26T00:50:39;7.63;89.24
75170;SHT31;63749;49.186;9.222;2023-03-26T00:53:05;7.51;89.52
75170;SHT31;63749;49.186;9.222;2023-03-26T00:55:33;7.43;89.64
75170;SHT31;63749;49.186;9.222;2023-03-26T00:57:58;7.35;90.10
75170;SHT31;63749;49.186;9.222;2023-03-26T01:00:29;7.32;89.95
75170;SHT31;63749;49.186;9.222;2023-03-26T01:02:59;7.29;89.92
75170;SHT31;63749;49.186;9.222;2023-03-26T01:08:15;7.16;90.12
75170;SHT31;63749;49.186;9.222;2023-03-26T01:10:42;7.18;90.28
75170;SHT31;63749;49.186;9.222;2023-03-26T01:13:08;7.21;89.90
75170;SHT31;63749;49.186;9.222;2023-03-26T01:15:34;7.09;89.90
75170;SHT31;63749;49.186;9.222;2023-03-26T01:18:04;7.00;90.21
75170;SHT31;63749;49.186;9.222;2023-03-26T01:20:32;7.04;90.05
75170;SHT31;63749;49.186;9.222;2023-03-26T01:23:04;6.91;90.53
75170;SHT31;63749;49.186;9.222;2023-03-26T01:25:37;6.93;90.48
75170;SHT31;63749;49.186;9.222;2023-03-26T01:28:05;6.81;91.10
75170;SHT31;63749;49.186;9.222;2023-03-26T01:30:49;6.67;91.45
75170;SHT31;63749;49.186;9.222;2023-03-26T01:33:19;6.60;91.78
75170;SHT31;63749;49.186;9.222;2023-03-26T01:36:05;6.56;92.11
75170;SHT31;63749;49.186;9.222;2023-03-26T01:38:45;6.50;92.62
75170;SHT31;63749;49.186;9.222;2023-03-26T01:44:09;6.40;92.87
75170;SHT31;63749;49.186;9.222;2023-03-26T01:46:39;6.37;92.90
75170;SHT31;63749;49.186;9.222;2023-03-26T01:49:05;6.29;93.06
75170;SHT31;63749;49.186;9.222;2023-03-26T01:51:37;6.30;92.95
75170;SHT31;63749;49.186;9.222;2023-03-26T01:54:05;6.26;93.03
75170;SHT31;63749;49.186;9.222;2023-03-26T02:02:44;6.32;93.11
75170;SHT31;63749;49.186;9.222;2023-03-26T02:05:33;6.30;93.35
75170;SHT31;63749;49.186;9.222;2023-03-26T02:08:09;6.40;93.01
75170;SHT31;63749;49.186;9.222;2023-03-26T02:10:40;6.49;92.72
75170;SHT31;63749;49.186;9.222;2023-03-26T02:13:06;6.58;92.47
75170;SHT31;63749;49.186;9.222;2023-03-26T02:15:32;6.66;91.89
75170;SHT31;63749;49.186;9.222;2023-03-26T02:17:57;6.77;91.74
75170;SHT31;63749;49.186;9.222;2023-03-26T02:20:24;6.84;91.39
75170;SHT31;63749;49.186;9.222;2023-03-26T02:22:55;6.91;90.32
75170;SHT31;63749;49.186;9.222;2023-03-26T02:25:21;6.91;91.08
75170;SHT31;63749;49.186;9.222;2023-03-26T02:27:47;6.91;90.76
75170;SHT31;63749;49.186;9.222;2023-03-26T02:30:17;6.90;90.44
75170;SHT31;63749;49.186;9.222;2023-03-26T02:32:43;6.81;90.70
75170;SHT31;63749;49.186;9.222;2023-03-26T02:35:10;6.70;90.77
75170;SHT31;63749;49.186;9.222;2023-03-26T02:37:37;6.60;91.20
75170;SHT31;63749;49.186;9.222;2023-03-26T02:40:02;6.60;91.09
75170;SHT31;63749;49.186;9.222;2023-03-26T02:42:30;6.56;91.33
75170;SHT31;63749;49.186;9.222;2023-03-26T02:44:55;6.56;91.25
75170;SHT31;63749;49.186;9.222;2023-03-26T02:47:20;6.46;91.42
75170;SHT31;63749;49.186;9.222;2023-03-26T02:49:46;6.47;91.10
75170;SHT31;63749;49.186;9.222;2023-03-26T02:52:11;6.46;91.30
75170;SHT31;63749;49.186;9.222;2023-03-26T02:54:37;6.42;91.48
75170;SHT31;63749;49.186;9.222;2023-03-26T02:57:02;6.39;91.55
75170;SHT31;63749;49.186;9.222;2023-03-26T02:59:27;6.36;91.76
75170;SHT31;63749;49.186;9.222;2023-03-26T03:01:53;6.39;91.38
75170;SHT31;63749;49.186;9.222;2023-03-26T03:04:18;6.33;91.77
75170;SHT31;63749;49.186;9.222;2023-03-26T03:06:45;6.33;92.01
75170;SHT31;63749;49.186;9.222;2023-03-26T03:09:10;6.37;92.08
75170;SHT31;63749;49.186;9.222;2023-03-26T03:11:38;6.40;92.00
75170;SHT31;63749;49.186;9.222;2023-03-26T03:14:04;6.46;91.57
75170;SHT31;63749;49.186;9.222;2023-03-26T03:16:30;6.52;91.18
75170;SHT31;63749;49.186;9.222;2023-03-26T03:18:55;6.53;91.42
75170;SHT31;63749;49.186;9.222;2023-03-26T03:21:26;6.56;91.12
75170;SHT31;63749;49.186;9.222;2023-03-26T03:23:55;6.54;91.43
75170;SHT31;63749;49.186;9.222;2023-03-26T03:26:23;6.57;91.28
75170;SHT31;63749;49.186;9.222;2023-03-26T03:28:52;6.66;91.20
75170;SHT31;63749;49.186;9.222;2023-03-26T03:31:18;6.74;90.95
75170;SHT31;63749;49.186;9.222;2023-03-26T03:33:44;6.83;91.18
75170;SHT31;63749;49.186;9.222;2023-03-26T03:36:11;6.87;90.95
75170;SHT31;63749;49.186;9.222;2023-03-26T03:38:37;6.90;91.00
75170;SHT31;63749;49.186;9.222;2023-03-26T03:41:02;7.01;90.61
75170;SHT31;63749;49.186;9.222;2023-03-26T03:43:28;7.09;89.27
75170;SHT31;63749;49.186;9.222;2023-03-26T03:45:53;7.11;89.76
75170;SHT31;63749;49.186;9.222;2023-03-26T03:48:18;7.21;88.30
75170;SHT31;63749;49.186;9.222;2023-03-26T03:50:44;7.31;88.15
75170;SHT31;63749;49.186;9.222;2023-03-26T03:53:09;7.36;87.66
75170;SHT31;63749;49.186;9.222;2023-03-26T03:55:41;7.38;87.45
75170;SHT31;63749;49.186;9.222;2023-03-26T03:58:06;7.39;87.73
75170;SHT31;63749;49.186;9.222;2023-03-26T04:00:33;7.43;87.16
75170;SHT31;63749;49.186;9.222;2023-03-26T04:03:03;7.41;87.79
75170;SHT31;63749;49.186;9.222;2023-03-26T04:05:31;7.41;87.36
75170;SHT31;63749;49.186;9.222;2023-03-26T04:07:56;7.41;87.82
75170;SHT31;63749;49.186;9.222;2023-03-26T04:10:21;7.42;87.77
75170;SHT31;63749;49.186;9.222;2023-03-26T04:12:47;7.42;88.13
75170;SHT31;63749;49.186;9.222;2023-03-26T04:15:12;7.42;88.55
75170;SHT31;63749;49.186;9.222;2023-03-26T04:17:37;7.45;88.58
75170;SHT31;63749;49.186;9.222;2023-03-26T04:20:07;7.43;88.78
75170;SHT31;63749;49.186;9.222;2023-03-26T04:22:34;7.43;88.85
75170;SHT31;63749;49.186;9.222;2023-03-26T04:25:00;7.45;88.37
75170;SHT31;63749;49.186;9.222;2023-03-26T04:27:29;7.46;88.51
75170;SHT31;63749;49.186;9.222;2023-03-26T04:29:56;7.43;88.22
75170;SHT31;63749;49.186;9.222;2023-03-26T04:32:25;7.41;87.79
75170;SHT31;63749;49.186;9.222;2023-03-26T04:34:54;7.46;88.00
75170;SHT31;63749;49.186;9.222;2023-03-26T04:37:29;7.49;87.36
75170;SHT31;63749;49.186;9.222;2023-03-26T04:39:56;7.52;87.75
75170;SHT31;63749;49.186;9.222;2023-03-26T04:42:22;7.52;87.47
75170;SHT31;63749;49.186;9.222;2023-03-26T04:44:47;7.55;87.30
75170;SHT31;63749;49.186;9.222;2023-03-26T04:47:16;7.52;88.00
75170;SHT31;63749;49.186;9.222;2023-03-26T04:49:42;7.52;88.24
75170;SHT31;63749;49.186;9.222;2023-03-26T04:52:09;7.53;87.50
75170;SHT31;63749;49.186;9.222;2023-03-26T04:54:35;7.53;87.72
75170;SHT31;63749;49.186;9.222;2023-03-26T04:57:08;7.51;87.36
75170;SHT31;63749;49.186;9.222;2023-03-26T04:59:37;7.49;87.37
75170;SHT31;63749;49.186;9.222;2023-03-26T05:02:05;7.52;87.00
75170;SHT31;63749;49.186;9.222;2023-03-26T05:04:32;7.49;87.74
75170;SHT31;63749;49.186;9.222;2023-03-26T05:07:03;7.48;87.07
75170;SHT31;63749;49.186;9.222;2023-03-26T05:09:29;7.51;86.76
75170;SHT31;63749;49.186;9.222;2023-03-26T05:11:55;7.48;87.08
75170;SHT31;63749;49.186;9.222;2023-03-26T05:14:21;7.46;87.00
75170;SHT31;63749;49.186;9.222;2023-03-26T05:16:47;7.46;87.16
75170;SHT31;63749;49.186;9.222;2023-03-26T05:19:14;7.43;88.20
75170;SHT31;63749;49.186;9.222;2023-03-26T05:21:40;7.46;87.93
75170;SHT31;63749;49.186;9.222;2023-03-26T05:24:05;7.49;87.51
75170;SHT31;63749;49.186;9.222;2023-03-26T05:26:32;7.52;86.94
75170;SHT31;63749;49.186;9.222;2023-03-26T05:28:58;7.55;87.19
75170;SHT31;63749;49.186;9.222;2023-03-26T05:31:24;7.58;87.32
75170;SHT31;63749;49.186;9.222;2023-03-26T05:33:51;7.65;86.42
75170;SHT31;63749;49.186;9.222;2023-03-26T05:36:16;7.72;86.63
75170;SHT31;63749;49.186;9.222;2023-03-26T05:38:43;7.74;86.51
75170;SHT31;63749;49.186;9.222;2023-03-26T05:41:14;7.76;86.81
75170;SHT31;63749;49.186;9.222;2023-03-26T05:43:39;7.79;86.97
75170;SHT31;63749;49.186;9.222;2023-03-26T05:46:05;7.84;85.88
75170;SHT31;63749;49.186;9.222;2023-03-26T05:48:31;7.89;86.10
75170;SHT31;63749;49.186;9.222;2023-03-26T05:50:57;7.91;86.14
75170;SHT31;63749;49.186;9.222;2023-03-26T05:53:24;7.95;86.58
75170;SHT31;63749;49.186;9.222;2023-03-26T05:55:50;8.01;85.99
75170;SHT31;63749;49.186;9.222;2023-03-26T05:58:30;8.07;85.55
75170;SHT31;63749;49.186;9.222;2023-03-26T06:01:02;8.08;85.46
75170;SHT31;63749;49.186;9.222;2023-03-26T06:03:38;8.18;85.49
75170;SHT31;63749;49.186;9.222;2023-03-26T06:06:13;8.23;85.47
75170;SHT31;63749;49.186;9.222;2023-03-26T06:08:44;8.25;85.44
75170;SHT31;63749;49.186;9.222;2023-03-26T06:11:13;8.31;85.22
75170;SHT31;63749;49.186;9.222;2023-03-26T06:13:40;8.37;85.44
75170;SHT31;63749;49.186;9.222;2023-03-26T06:16:06;8.40;85.31
75170;SHT31;63749;49.186;9.222;2023-03-26T06:18:31;8.45;85.23
75170;SHT31;63749;49.186;9.222;2023-03-26T06:20:57;8.49;85.03
75170;SHT31;63749;49.186;9.222;2023-03-26T06:23:22;8.52;85.33
75170;SHT31;63749;49.186;9.222;2023-03-26T06:25:48;8.52;85.31
75170;SHT31;63749;49.186;9.222;2023-03-26T06:28:14;8.54;85.90
75170;SHT31;63749;49.186;9.222;2023-03-26T06:30:39;8.58;84.74
75170;SHT31;63749;49.186;9.222;2023-03-26T06:33:05;8.55;85.06
75170;SHT31;63749;49.186;9.222;2023-03-26T06:35:31;8.62;85.07
75170;SHT31;63749;49.186;9.222;2023-03-26T06:37:57;8.65;84.78
75170;SHT31;63749;49.186;9.222;2023-03-26T06:40:23;8.73;84.11
75170;SHT31;63749;49.186;9.222;2023-03-26T06:42:49;8.77;83.38
75170;SHT31;63749;49.186;9.222;2023-03-26T06:45:14;9.00;82.17
75170;SHT31;63749;49.186;9.222;2023-03-26T06:47:40;9.04;81.82
75170;SHT31;63749;49.186;9.222;2023-03-26T06:50:05;8.97;83.04
75170;SHT31;63749;49.186;9.222;2023-03-26T06:52:31;8.94;83.00
75170;SHT31;63749;49.186;9.222;2023-03-26T06:54:56;8.90;83.59
75170;SHT31;63749;49.186;9.222;2023-03-26T06:57:22;8.87;83.53
75170;SHT31;63749;49.186;9.222;2023-03-26T06:59:47;8.89;83.27
75170;SHT31;63749;49.186;9.222;2023-03-26T07:02:12;8.90;83.03
75170;SHT31;63749;49.186;9.222;2023-03-26T07:04:38;8.97;83.25
75170;SHT31;63749;49.186;9.222;2023-03-26T07:07:04;9.04;81.83
75170;SHT31;63749;49.186;9.222;2023-03-26T07:09:29;9.20;81.66
75170;SHT31;63749;49.186;9.222;2023-03-26T07:11:55;9.27;80.91
75170;SHT31;63749;49.186;9.222;2023-03-26T07:14:21;9.40;80.79
75170;SHT31;63749;49.186;9.222;2023-03-26T07:16:49;9.51;79.85
75170;SHT31;63749;49.186;9.222;2023-03-26T07:19:14;9.64;80.41
75170;SHT31;63749;49.186;9.222;2023-03-26T07:21:40;9.72;79.84
75170;SHT31;63749;49.186;9.222;2023-03-26T07:24:09;9.78;78.55
75170;SHT31;63749;49.186;9.222;2023-03-26T07:30:04;9.79;78.78
75170;SHT31;63749;49.186;9.222;2023-03-26T07:32:52;9.77;78.37
75170;SHT31;63749;49.186;9.222;2023-03-26T07:35:25;9.92;77.74
75170;SHT31;63749;49.186;9.222;2023-03-26T07:40:40;9.81;77.91
75170;SHT31;63749;49.186;9.222;2023-03-26T07:46:09;9.86;77.15
75170;SHT31;63749;49.186;9.222;2023-03-26T07:48:40;9.75;77.24
75170;SHT31;63749;49.186;9.222;2023-03-26T07:51:07;9.70;77.90
75170;SHT31;63749;49.186;9.222;2023-03-26T07:53:32;9.62;76.52
75170;SHT31;63749;49.186;9.222;2023-03-26T07:56:14;9.57;76.95
75170;SHT31;63749;49.186;9.222;2023-03-26T08:06:37;9.47;79.53
75170;SHT31;63749;49.186;9.222;2023-03-26T08:09:21;9.48;81.09
75170;SHT31;63749;49.186;9.222;2023-03-26T08:11:57;9.54;79.59
75170;SHT31;63749;49.186;9.222;2023-03-26T08:17:22;9.26;81.09
75170;SHT31;63749;49.186;9.222;2023-03-26T08:22:37;9.14;81.17
75170;SHT31;63749;49.186;9.222;2023-03-26T08:27:38;8.93;80.39
75170;SHT31;63749;49.186;9.222;2023-03-26T08:30:14;8.93;80.99
75170;SHT31;63749;49.186;9.222;2023-03-26T08:32:41;8.80;80.40
75170;SHT31;63749;49.186;9.222;2023-03-26T08:35:14;8.80;80.90
75170;SHT31;63749;49.186;9.222;2023-03-26T08:37:39;8.94;81.92
75170;SHT31;63749;49.186;9.222;2023-03-26T08:40:05;9.02;82.08
75170;SHT31;63749;49.186;9.222;2023-03-26T08:45:27;9.16;81.75
75170;SHT31;63749;49.186;9.222;2023-03-26T09:35:25;9.09;84.48
75170;SHT31;63749;49.186;9.222;2023-03-26T09:37:58;9.23;85.34
75170;SHT31;63749;49.186;9.222;2023-03-26T09:40:51;9.45;85.11
75170;SHT31;63749;49.186;9.222;2023-03-26T09:46:40;10.50;80.91
75170;SHT31;63749;49.186;9.222;2023-03-26T09:49:24;10.71;80.94
75170;SHT31;63749;49.186;9.222;2023-03-26T09:52:13;11.01;81.63
75170;SHT31;63749;49.186;9.222;2023-03-26T09:55:01;11.22;80.00
75170;SHT31;63749;49.186;9.222;2023-03-26T09:57:54;11.74;76.54
75170;SHT31;63749;49.186;9.222;2023-03-26T10:03:33;11.30;79.22
75170;SHT31;63749;49.186;9.222;2023-03-26T10:09:33;10.90;80.69
75170;SHT31;63749;49.186;9.222;2023-03-26T10:21:03;10.29;83.37
75170;SHT31;63749;49.186;9.222;2023-03-26T10:26:01;10.02;85.82
75170;SHT31;63749;49.186;9.222;2023-03-26T10:28:44;10.05;85.91
75170;SHT31;63749;49.186;9.222;2023-03-26T10:34:54;9.82;87.56
75170;SHT31;63749;49.186;9.222;2023-03-26T10:37:48;10.08;87.80
75170;SHT31;63749;49.186;9.222;2023-03-26T10:43:21;10.47;85.18
75170;SHT31;63749;49.186;9.222;2023-03-26T10:46:26;10.49;85.32
75170;SHT31;63749;49.186;9.222;2023-03-26T10:51:57;10.60;85.33
75170;SHT31;63749;49.186;9.222;2023-03-26T10:57:11;10.53;83.07
75170;SHT31;63749;49.186;9.222;2023-03-26T10:59:44;10.77;83.82
75170;SHT31;63749;49.186;9.222;2023-03-26T11:02:28;10.90;82.82
75170;SHT31;63749;49.186;9.222;2023-03-26T11:07:48;11.21;82.09
75170;SHT31;63749;49.186;9.222;2023-03-26T11:15:41;11.89;80.17
75170;SHT31;63749;49.186;9.222;2023-03-26T11:20:43;12.22;78.69
75170;SHT31;63749;49.186;9.222;2023-03-26T11:30:53;12.97;73.13
75170;SHT31;63749;49.186;9.222;2023-03-26T11:33:23;13.48;72.35
75170;SHT31;63749;49.186;9.222;2023-03-26T11:35:50;13.65;70.59
75170;SHT31;63749;49.186;9.222;2023-03-26T11:38:18;13.88;70.30
75170;SHT31;63749;49.186;9.222;2023-03-26T11:40:49;13.69;67.65
75170;SHT31;63749;49.186;9.222;2023-03-26T11:43:21;13.78;67.98
75170;SHT31;63749;49.186;9.222;2023-03-26T11:45:49;14.33;66.89
75170;SHT31;63749;49.186;9.222;2023-03-26T11:50:54;14.47;63.48
75170;SHT31;63749;49.186;9.222;2023-03-26T11:53:22;14.40;64.73
75170;SHT31;63749;49.186;9.222;2023-03-26T11:58:30;14.89;59.77
75170;SHT31;63749;49.186;9.222;2023-03-26T12:00:58;14.80;56.81
75170;SHT31;63749;49.186;9.222;2023-03-26T12:03:26;15.06;54.31
75170;SHT31;63749;49.186;9.222;2023-03-26T12:05:57;14.83;54.58
75170;SHT31;63749;49.186;9.222;2023-03-26T12:08:30;14.88;52.95
75170;SHT31;63749;49.186;9.222;2023-03-26T12:11:06;14.78;54.46
75170;SHT31;63749;49.186;9.222;2023-03-26T12:13:42;14.53;54.16
75170;SHT31;63749;49.186;9.222;2023-03-26T12:16:09;14.40;53.82
75170;SHT31;63749;49.186;9.222;2023-03-26T12:18:36;14.34;52.60
75170;SHT31;63749;49.186;9.222;2023-03-26T12:21:05;14.48;54.01
75170;SHT31;63749;49.186;9.222;2023-03-26T12:23:37;14.30;54.02
75170;SHT31;63749;49.186;9.222;2023-03-26T12:26:10;14.26;50.27
75170;SHT31;63749;49.186;9.222;2023-03-26T12:28:43;14.26;48.35
75170;SHT31;63749;49.186;9.222;2023-03-26T12:31:11;14.47;49.60
75170;SHT31;63749;49.186;9.222;2023-03-26T12:33:42;14.63;49.75
75170;SHT31;63749;49.186;9.222;2023-03-26T12:36:24;14.38;50.07
75170;SHT31;63749;49.186;9.222;2023-03-26T12:38:54;14.19;51.50
75170;SHT31;63749;49.186;9.222;2023-03-26T12:41:32;14.50;50.46
75170;SHT31;63749;49.186;9.222;2023-03-26T12:44:20;14.78;49.41
75170;SHT31;63749;49.186;9.222;2023-03-26T12:46:48;14.81;49.79
75170;SHT31;63749;49.186;9.222;2023-03-26T12:49:19;14.81;48.07
75170;SHT31;63749;49.186;9.222;2023-03-26T12:54:37;15.18;47.45
75170;SHT31;63749;49.186;9.222;2023-03-26T12:57:27;15.56;45.27
75170;SHT31;63749;49.186;9.222;2023-03-26T13:05:40;16.86;41.91
75170;SHT31;63749;49.186;9.222;2023-03-26T13:17:08;15.80;44.66
75170;SHT31;63749;49.186;9.222;2023-03-26T13:19:58;15.71;45.24
75170;SHT31;63749;49.186;9.222;2023-03-26T13:22:35;15.86;44.88
75170;SHT31;63749;49.186;9.222;2023-03-26T13:25:24;15.87;43.56
75170;SHT31;63749;49.186;9.222;2023-03-26T13:37:10;17.40;41.35
75170;SHT31;63749;49.186;9.222;2023-03-26T13:42:11;17.00;41.65
75170;SHT31;63749;49.186;9.222;2023-03-26T13:47:19;16.41;44.30
75170;SHT31;63749;49.186;9.222;2023-03-26T13:49:52;16.20;45.01
75170;SHT31;63749;49.186;9.222;2023-03-26T13:52:25;17.82;41.97
75170;SHT31;63749;49.186;9.222;2023-03-26T13:57:42;18.67;40.21
75170;SHT31;63749;49.186;9.222;2023-03-26T14:00:21;18.08;41.06
75170;SHT31;63749;49.186;9.222;2023-03-26T14:02:57;18.13;39.16
75170;SHT31;63749;49.186;9.222;2023-03-26T14:05:32;18.08;38.96
75170;SHT31;63749;49.186;9.222;2023-03-26T14:10:47;17.61;40.44
75170;SHT31;63749;49.186;9.222;2023-03-26T14:13:28;16.97;41.08
75170;SHT31;63749;49.186;9.222;2023-03-26T14:16:19;16.69;42.64
75170;SHT31;63749;49.186;9.222;2023-03-26T14:30:16;14.94;46.51
75170;SHT31;63749;49.186;9.222;2023-03-26T14:33:21;14.70;47.51
75170;SHT31;63749;49.186;9.222;2023-03-26T14:37:04;14.59;48.34
75170;SHT31;63749;49.186;9.222;2023-03-26T14:39:29;14.51;49.43
75170;SHT31;63749;49.186;9.222;2023-03-26T14:45:07;14.19;49.80
75170;SHT31;63749;49.186;9.222;2023-03-26T14:47:55;13.96;50.52
75170;SHT31;63749;49.186;9.222;2023-03-26T14:50:41;13.90;50.67
75170;SHT31;63749;49.186;9.222;2023-03-26T14:53:24;13.58;53.50
75170;SHT31;63749;49.186;9.222;2023-03-26T15:05:21;12.53;56.48
75170;SHT31;63749;49.186;9.222;2023-03-26T15:08:04;11.98;62.92
75170;SHT31;63749;49.186;9.222;2023-03-26T15:20:09;9.72;78.09
75170;SHT31;63749;49.186;9.222;2023-03-26T15:22:31;9.37;81.02
75170;SHT31;63749;49.186;9.222;2023-03-26T15:42:31;8.58;86.45
75170;SHT31;63749;49.186;9.222;2023-03-26T15:45:30;8.44;87.27
75170;SHT31;63749;49.186;9.222;2023-03-26T15:48:18;8.48;87.87
75170;SHT31;63749;49.186;9.222;2023-03-26T15:50:58;8.44;86.05
75170;SHT31;63749;49.186;9.222;2023-03-26T15:58:51;8.35;85.62
75170;SHT31;63749;49.186;9.222;2023-03-26T16:04:12;8.37;85.26
75170;SHT31;63749;49.186;9.222;2023-03-26T16:06:57;8.41;83.82
75170;SHT31;63749;49.186;9.222;2023-03-26T16:12:32;8.40;83.65
75170;SHT31;63749;49.186;9.222;2023-03-26T16:15:24;8.46;83.13
75170;SHT31;63749;49.186;9.222;2023-03-26T16:21:01;8.71;82.20
75170;SHT31;63749;49.186;9.222;2023-03-26T16:23:54;8.79;82.12
75170;SHT31;63749;49.186;9.222;2023-03-26T16:29:18;8.97;80.57
75170;SHT31;63749;49.186;9.222;2023-03-26T16:34:46;9.12;79.13
75170;SHT31;63749;49.186;9.222;2023-03-26T16:42:46;8.97;79.94
75170;SHT31;63749;49.186;9.222;2023-03-26T16:45:22;8.97;79.30
75170;SHT31;63749;49.186;9.222;2023-03-26T16:58:55;8.89;80.49
75170;SHT31;63749;49.186;9.222;2023-03-26T17:04:04;8.86;79.74
75170;SHT31;63749;49.186;9.222;2023-03-26T17:12:47;8.69;79.78
75170;SHT31;63749;49.186;9.222;2023-03-26T17:23:08;8.49;80.37
75170;SHT31;63749;49.186;9.222;2023-03-26T17:25:41;8.45;80.68
75170;SHT31;63749;49.186;9.222;2023-03-26T17:28:32;8.42;81.16
75170;SHT31;63749;49.186;9.222;2023-03-26T17:33:51;8.30;81.35
75170;SHT31;63749;49.186;9.222;2023-03-26T17:36:28;8.27;81.41
75170;SHT31;63749;49.186;9.222;2023-03-26T17:39:15;8.28;81.15
75170;SHT31;63749;49.186;9.222;2023-03-26T17:44:41;8.23;82.17
75170;SHT31;63749;49.186;9.222;2023-03-26T17:47:37;8.23;82.31
75170;SHT31;63749;49.186;9.222;2023-03-26T17:52:57;8.23;82.54
75170;SHT31;63749;49.186;9.222;2023-03-26T17:55:29;8.25;82.45
75170;SHT31;63749;49.186;9.222;2023-03-26T17:58:00;8.27;81.99
75170;SHT31;63749;49.186;9.222;2023-03-26T18:00:34;8.23;82.38
75170;SHT31;63749;49.186;9.222;2023-03-26T18:05:46;8.30;81.53
75170;SHT31;63749;49.186;9.222;2023-03-26T18:11:36;8.28;81.71
75170;SHT31;63749;49.186;9.222;2023-03-26T18:14:28;8.31;81.11
75170;SHT31;63749;49.186;9.222;2023-03-26T18:17:00;8.21;81.52
75170;SHT31;63749;49.186;9.222;2023-03-26T18:19:27;8.24;81.47
75170;SHT31;63749;49.186;9.222;2023-03-26T18:21:55;8.25;80.98
75170;SHT31;63749;49.186;9.222;2023-03-26T18:24:30;8.17;81.89
75170;SHT31;63749;49.186;9.222;2023-03-26T18:27:06;8.15;81.66
75170;SHT31;63749;49.186;9.222;2023-03-26T18:29:34;8.04;82.14
75170;SHT31;63749;49.186;9.222;2023-03-26T18:32:15;8.18;81.22
75170;SHT31;63749;49.186;9.222;2023-03-26T18:34:53;8.24;80.93
75170;SHT31;63749;49.186;9.222;2023-03-26T18:39:57;8.37;79.89
75170;SHT31;63749;49.186;9.222;2023-03-26T18:42:24;8.30;80.36
75170;SHT31;63749;49.186;9.222;2023-03-26T18:44:50;8.21;80.85
75170;SHT31;63749;49.186;9.222;2023-03-26T18:47:16;8.33;80.42
75170;SHT31;63749;49.186;9.222;2023-03-26T18:49:43;8.37;80.05
75170;SHT31;63749;49.186;9.222;2023-03-26T18:52:15;8.28;80.50
75170;SHT31;63749;49.186;9.222;2023-03-26T18:54:41;8.34;80.41
75170;SHT31;63749;49.186;9.222;2023-03-26T18:57:10;8.31;80.21
75170;SHT31;63749;49.186;9.222;2023-03-26T18:59:36;8.25;80.44
75170;SHT31;63749;49.186;9.222;2023-03-26T19:02:11;8.31;80.18
75170;SHT31;63749;49.186;9.222;2023-03-26T19:04:37;8.25;80.27
75170;SHT31;63749;49.186;9.222;2023-03-26T19:07:05;8.27;80.17
75170;SHT31;63749;49.186;9.222;2023-03-26T19:09:34;8.37;80.10
75170;SHT31;63749;49.186;9.222;2023-03-26T19:12:14;8.34;79.90
75170;SHT31;63749;49.186;9.222;2023-03-26T19:14:54;8.35;80.15
75170;SHT31;63749;49.186;9.222;2023-03-26T19:17:20;8.38;79.95
75170;SHT31;63749;49.186;9.222;2023-03-26T19:19:48;8.45;79.83
75170;SHT31;63749;49.186;9.222;2023-03-26T19:22:14;8.35;79.83
75170;SHT31;63749;49.186;9.222;2023-03-26T19:24:41;8.17;80.89
75170;SHT31;63749;49.186;9.222;2023-03-26T19:27:06;8.17;81.06
75170;SHT31;63749;49.186;9.222;2023-03-26T19:29:33;8.25;80.26
75170;SHT31;63749;49.186;9.222;2023-03-26T19:32:04;8.14;80.66
75170;SHT31;63749;49.186;9.222;2023-03-26T19:34:33;8.05;80.96
75170;SHT31;63749;49.186;9.222;2023-03-26T19:37:01;8.10;80.24
75170;SHT31;63749;49.186;9.222;2023-03-26T19:39:46;8.08;80.20
75170;SHT31;63749;49.186;9.222;2023-03-26T19:42:19;8.00;80.74
75170;SHT31;63749;49.186;9.222;2023-03-26T19:44:45;8.00;80.88
75170;SHT31;63749;49.186;9.222;2023-03-26T19:47:25;7.94;81.33
75170;SHT31;63749;49.186;9.222;2023-03-26T19:49:57;8.00;81.26
75170;SHT31;63749;49.186;9.222;2023-03-26T19:52:35;8.13;80.66
75170;SHT31;63749;49.186;9.222;2023-03-26T19:57:35;8.17;79.58
75170;SHT31;63749;49.186;9.222;2023-03-26T20:00:03;8.21;79.60
75170;SHT31;63749;49.186;9.222;2023-03-26T20:02:29;8.24;78.83
75170;SHT31;63749;49.186;9.222;2023-03-26T20:04:55;8.17;78.61
75170;SHT31;63749;49.186;9.222;2023-03-26T20:07:23;8.23;80.03
75170;SHT31;63749;49.186;9.222;2023-03-26T20:09:51;8.15;78.45
75170;SHT31;63749;49.186;9.222;2023-03-26T20:12:17;8.21;78.30
75170;SHT31;63749;49.186;9.222;2023-03-26T20:14:42;8.31;78.76
75170;SHT31;63749;49.186;9.222;2023-03-26T20:17:11;8.31;77.34
75170;SHT31;63749;49.186;9.222;2023-03-26T20:19:37;8.37;77.33
75170;SHT31;63749;49.186;9.222;2023-03-26T20:22:04;8.44;77.09
75170;SHT31;63749;49.186;9.222;2023-03-26T20:24:29;8.42;77.18
75170;SHT31;63749;49.186;9.222;2023-03-26T20:26:56;8.37;77.76
75170;SHT31;63749;49.186;9.222;2023-03-26T20:29:21;8.34;77.76
75170;SHT31;63749;49.186;9.222;2023-03-26T20:31:47;8.38;77.94
75170;SHT31;63749;49.186;9.222;2023-03-26T20:34:16;8.41;78.21
75170;SHT31;63749;49.186;9.222;2023-03-26T20:36:41;8.34;79.90
75170;SHT31;63749;49.186;9.222;2023-03-26T20:39:07;8.08;82.79
75170;SHT31;63749;49.186;9.222;2023-03-26T20:41:34;7.89;84.10
75170;SHT31;63749;49.186;9.222;2023-03-26T20:44:00;7.67;85.83
75170;SHT31;63749;49.186;9.222;2023-03-26T20:46:28;7.61;85.68
75170;SHT31;63749;49.186;9.222;2023-03-26T20:48:53;7.53;86.72
75170;SHT31;63749;49.186;9.222;2023-03-26T20:51:21;7.41;88.16
75170;SHT31;63749;49.186;9.222;2023-03-26T20:53:46;7.36;88.64
75170;SHT31;63749;49.186;9.222;2023-03-26T20:56:19;7.29;89.01
75170;SHT31;63749;49.186;9.222;2023-03-26T20:58:46;7.16;89.16
75170;SHT31;63749;49.186;9.222;2023-03-26T21:01:14;7.05;89.93
75170;SHT31;63749;49.186;9.222;2023-03-26T21:03:41;7.09;88.83
75170;SHT31;63749;49.186;9.222;2023-03-26T21:06:11;7.07;89.21
75170;SHT31;63749;49.186;9.222;2023-03-26T21:08:41;7.07;90.17
75170;SHT31;63749;49.186;9.222;2023-03-26T21:11:22;6.97;90.79